createdAt,value
2018-04-19T00:00:19.544Z,979.99
2018-04-19T00:01:19.506Z,979.97
2018-04-19T00:02:19.498Z,980.02
2018-04-19T00:03:19.423Z,980.05
2018-04-19T00:04:19.365Z,980.00
2018-04-19T00:05:19.319Z,979.99
2018-04-19T00:06:19.272Z,980.00
2018-04-19T00:07:19.266Z,980.07
2018-04-19T00:08:19.182Z,980.09
2018-04-19T00:09:19.133Z,979.98
2018-04-19T00:10:19.088Z,980.00
2018-04-19T00:11:19.043Z,980.03
2018-04-19T00:12:19.028Z,980.03
2018-04-19T00:13:18.959Z,980.03
2018-04-19T00:14:18.908Z,980.08
2018-04-19T00:15:18.856Z,980.07
2018-04-19T00:16:18.849Z,980.08
2018-04-19T00:17:18.764Z,980.05
2018-04-19T00:18:18.729Z,979.99
2018-04-19T00:19:18.720Z,979.97
2018-04-19T00:20:18.629Z,980.05
2018-04-19T00:21:18.581Z,980.10
2018-04-19T00:22:18.542Z,980.02
2018-04-19T00:23:18.528Z,979.95
2018-04-19T00:24:18.452Z,979.99
2018-04-19T00:25:18.406Z,980.04
2018-04-19T00:26:18.357Z,980.07
2018-04-19T00:27:18.308Z,980.05
2018-04-19T00:28:18.302Z,980.03
2018-04-19T00:29:18.215Z,980.04
2018-04-19T00:30:18.170Z,980.00
2018-04-19T00:31:18.123Z,979.99
2018-04-19T00:32:18.120Z,980.03
2018-04-19T00:33:18.031Z,980.01
2018-04-19T00:34:17.993Z,980.03
2018-04-19T00:35:17.942Z,980.04
2018-04-19T00:36:17.893Z,980.02
2018-04-19T00:37:17.885Z,980.01
2018-04-19T00:38:17.801Z,979.96
2018-04-19T00:39:17.771Z,980.01
2018-04-19T00:40:17.718Z,980.07
2018-04-19T00:41:17.665Z,979.97
2018-04-19T00:42:17.656Z,979.97
2018-04-19T00:43:17.580Z,980.02
2018-04-19T00:44:17.528Z,980.00
2018-04-19T00:45:17.488Z,979.94
2018-04-19T00:46:17.434Z,980.03
2018-04-19T00:47:17.431Z,979.99
2018-04-19T00:48:17.345Z,980.01
2018-04-19T00:49:17.349Z,980.00
2018-04-19T00:50:17.256Z,980.02
2018-04-19T00:51:17.210Z,980.06
2018-04-19T00:52:17.160Z,979.98
2018-04-19T00:53:17.109Z,979.98
2018-04-19T00:54:17.101Z,980.00
2018-04-19T00:55:17.031Z,980.04
2018-04-19T00:56:17.008Z,980.03
2018-04-19T00:57:16.930Z,980.05
2018-04-19T00:58:16.885Z,980.03
2018-04-19T00:59:16.840Z,980.06
2018-04-19T01:00:16.794Z,980.06
2018-04-19T01:01:16.789Z,980.03
2018-04-19T01:02:16.701Z,980.03
2018-04-19T01:03:16.651Z,980.07
2018-04-19T01:04:16.613Z,980.09
2018-04-19T01:05:16.567Z,980.07
2018-04-19T01:06:16.547Z,980.07
2018-04-19T01:07:16.469Z,980.07
2018-04-19T01:08:16.426Z,980.08
2018-04-19T01:09:16.375Z,980.07
2018-04-19T01:10:16.425Z,980.07
2018-04-19T01:11:16.292Z,980.08
2018-04-19T01:12:16.235Z,980.11
2018-04-19T01:13:16.196Z,980.08
2018-04-19T01:14:16.153Z,980.09
2018-04-19T01:15:16.136Z,980.07
2018-04-19T01:16:16.052Z,980.04
2018-04-19T01:17:16.014Z,980.04
2018-04-19T01:18:15.993Z,980.04
2018-04-19T01:19:15.916Z,980.02
2018-04-19T01:20:15.869Z,980.03
2018-04-19T01:21:15.824Z,980.02
2018-04-19T01:22:15.788Z,980.08
2018-04-19T01:23:15.772Z,980.02
2018-04-19T01:24:15.682Z,980.09
2018-04-19T01:25:15.650Z,980.09
2018-04-19T01:26:15.595Z,980.03
2018-04-19T01:27:15.548Z,980.04
2018-04-19T01:28:15.534Z,980.12
2018-04-19T01:29:15.453Z,980.05
2018-04-19T01:30:15.442Z,980.03
2018-04-19T01:31:15.364Z,980.06
2018-04-19T01:32:15.321Z,980.03
2018-04-19T01:33:15.270Z,979.99
2018-04-19T01:34:15.264Z,979.98
2018-04-19T01:35:15.186Z,980.00
2018-04-19T01:36:15.126Z,980.00
2018-04-19T01:37:15.126Z,979.98
2018-04-19T01:38:15.044Z,979.98
2018-04-19T01:39:14.994Z,979.95
2018-04-19T01:40:14.955Z,979.98
2018-04-19T01:41:14.939Z,979.97
2018-04-19T01:42:14.849Z,979.93
2018-04-19T01:43:14.811Z,980.03
2018-04-19T01:44:14.756Z,979.97
2018-04-19T01:45:14.718Z,979.99
2018-04-19T01:46:14.698Z,979.95
2018-04-19T01:47:14.657Z,979.97
2018-04-19T01:48:14.574Z,980.00
2018-04-19T01:49:14.565Z,979.95
2018-04-19T01:50:14.479Z,979.91
2018-04-19T01:51:14.432Z,980.00
2018-04-19T01:52:14.389Z,979.99
2018-04-19T01:53:14.399Z,979.98
2018-04-19T01:54:14.293Z,979.98
2018-04-19T01:55:14.249Z,979.92
2018-04-19T01:56:14.197Z,980.00
2018-04-19T01:57:14.152Z,979.93
2018-04-19T01:58:14.167Z,979.94
2018-04-19T01:59:14.088Z,980.00
2018-04-19T02:00:14.013Z,979.99
2018-04-19T02:01:13.964Z,979.99
2018-04-19T02:02:13.922Z,979.95
2018-04-19T02:03:13.913Z,979.95
2018-04-19T02:04:13.830Z,979.97
2018-04-19T02:05:13.775Z,979.99
2018-04-19T02:06:13.769Z,979.89
2018-04-19T02:07:13.702Z,979.96
2018-04-19T02:08:13.639Z,979.93
2018-04-19T02:09:13.590Z,979.92
2018-04-19T02:10:13.585Z,979.90
2018-04-19T02:11:13.496Z,979.83
2018-04-19T02:12:13.447Z,979.94
2018-04-19T02:13:13.414Z,979.89
2018-04-19T02:14:13.354Z,979.88
2018-04-19T02:15:13.350Z,979.89
2018-04-19T02:16:13.261Z,979.90
2018-04-19T02:17:13.214Z,979.88
2018-04-19T02:18:13.177Z,979.95
2018-04-19T02:19:13.179Z,979.92
2018-04-19T02:20:13.116Z,979.92
2018-04-19T02:21:13.059Z,979.90
2018-04-19T02:22:12.980Z,979.89
2018-04-19T02:23:12.932Z,979.89
2018-04-19T02:24:12.885Z,979.87
2018-04-19T02:25:12.837Z,979.90
2018-04-19T02:26:12.839Z,979.86
2018-04-19T02:27:12.788Z,979.92
2018-04-19T02:28:12.699Z,979.85
2018-04-19T02:29:12.647Z,979.85
2018-04-19T02:30:12.607Z,979.97
2018-04-19T02:31:12.555Z,979.88
2018-04-19T02:32:12.554Z,979.94
2018-04-19T02:33:12.478Z,979.87
2018-04-19T02:34:12.423Z,979.90
2018-04-19T02:35:12.383Z,979.91
2018-04-19T02:36:12.323Z,979.92
2018-04-19T02:37:12.320Z,979.92
2018-04-19T02:38:12.237Z,979.93
2018-04-19T02:39:12.176Z,979.97
2018-04-19T02:40:12.131Z,979.89
2018-04-19T02:41:12.120Z,979.89
2018-04-19T02:42:12.081Z,979.90
2018-04-19T02:43:11.990Z,979.94
2018-04-19T02:44:11.982Z,979.84
2018-04-19T02:45:11.904Z,979.83
2018-04-19T02:46:11.849Z,979.83
2018-04-19T02:47:11.809Z,979.83
2018-04-19T02:48:11.791Z,979.83
2018-04-19T02:49:11.705Z,979.83
2018-04-19T02:50:11.666Z,979.89
2018-04-19T02:51:11.617Z,979.90
2018-04-19T02:52:11.568Z,979.82
2018-04-19T02:53:11.551Z,979.80
2018-04-19T02:54:11.480Z,979.79
2018-04-19T02:55:11.424Z,979.81
2018-04-19T02:56:11.414Z,979.77
2018-04-19T02:57:11.326Z,979.80
2018-04-19T02:58:11.328Z,979.77
2018-04-19T02:59:11.282Z,979.72
2018-04-19T03:00:11.195Z,979.64
2018-04-19T03:01:11.139Z,979.74
2018-04-19T03:02:11.095Z,979.75
2018-04-19T03:03:11.049Z,979.67
2018-04-19T03:04:11.049Z,979.64
2018-04-19T03:05:10.952Z,979.66
2018-04-19T03:06:10.902Z,979.70
2018-04-19T03:07:10.853Z,979.69
2018-04-19T03:08:10.819Z,979.68
2018-04-19T03:09:10.801Z,979.70
2018-04-19T03:10:10.716Z,979.64
2018-04-19T03:11:10.669Z,979.64
2018-04-19T03:12:10.630Z,979.64
2018-04-19T03:13:10.592Z,979.61
2018-04-19T03:14:10.556Z,979.57
2018-04-19T03:15:10.516Z,979.61
2018-04-19T03:16:10.436Z,979.55
2018-04-19T03:17:10.378Z,979.53
2018-04-19T03:18:10.339Z,979.52
2018-04-19T03:19:10.283Z,979.52
2018-04-19T03:20:10.272Z,979.48
2018-04-19T03:21:10.194Z,979.49
2018-04-19T03:22:10.176Z,979.49
2018-04-19T03:23:10.094Z,979.46
2018-04-19T03:24:10.050Z,979.48
2018-04-19T03:25:10.001Z,979.45
2018-04-19T03:26:09.986Z,979.47
2018-04-19T03:27:09.911Z,979.47
2018-04-19T03:28:09.855Z,979.45
2018-04-19T03:29:09.807Z,979.43
2018-04-19T03:30:09.764Z,979.44
2018-04-19T03:31:09.749Z,979.45
2018-04-19T03:32:09.665Z,979.39
2018-04-19T03:33:09.622Z,979.37
2018-04-19T03:34:09.601Z,979.35
2018-04-19T03:35:09.538Z,979.39
2018-04-19T03:36:09.507Z,979.42
2018-04-19T03:37:09.422Z,979.38
2018-04-19T03:38:09.419Z,979.45
2018-04-19T03:39:09.330Z,979.43
2018-04-19T03:40:09.289Z,979.35
2018-04-19T03:41:09.236Z,979.40
2018-04-19T03:42:09.223Z,979.34
2018-04-19T03:43:09.139Z,979.30
2018-04-19T03:44:09.093Z,979.32
2018-04-19T03:45:09.053Z,979.27
2018-04-19T03:46:09.014Z,979.28
2018-04-19T03:47:08.982Z,979.34
2018-04-19T03:48:08.899Z,979.32
2018-04-19T03:49:08.860Z,979.35
2018-04-19T03:50:08.806Z,979.28
2018-04-19T03:51:08.761Z,979.27
2018-04-19T03:52:08.748Z,979.29
2018-04-19T03:53:08.664Z,979.29
2018-04-19T03:54:08.620Z,979.32
2018-04-19T03:55:08.569Z,979.27
2018-04-19T03:56:08.523Z,979.28
2018-04-19T03:57:08.511Z,979.26
2018-04-19T03:58:08.460Z,979.27
2018-04-19T03:59:08.379Z,979.24
2018-04-19T04:00:08.327Z,979.27
2018-04-19T04:01:08.354Z,979.22
2018-04-19T04:02:08.238Z,979.21
2018-04-19T04:03:08.187Z,979.23
2018-04-19T04:04:08.154Z,979.26
2018-04-19T04:05:08.126Z,979.22
2018-04-19T04:06:08.049Z,979.26
2018-04-19T04:07:08.001Z,979.19
2018-04-19T04:08:07.953Z,979.29
2018-04-19T04:09:07.904Z,979.24
2018-04-19T04:10:07.893Z,979.16
2018-04-19T04:11:07.806Z,979.23
2018-04-19T04:12:07.758Z,979.25
2018-04-19T04:13:07.724Z,979.23
2018-04-19T04:14:07.667Z,979.18
2018-04-19T04:15:07.692Z,979.19
2018-04-19T04:16:07.579Z,979.20
2018-04-19T04:17:07.519Z,979.16
2018-04-19T04:18:07.475Z,979.17
2018-04-19T04:19:07.457Z,979.16
2018-04-19T04:20:07.374Z,979.19
2018-04-19T04:21:07.331Z,979.21
2018-04-19T04:22:07.312Z,979.19
2018-04-19T04:23:07.231Z,979.20
2018-04-19T04:24:07.190Z,979.17
2018-04-19T04:25:07.141Z,979.19
2018-04-19T04:26:07.134Z,979.16
2018-04-19T04:27:07.050Z,979.15
2018-04-19T04:28:06.998Z,979.17
2018-04-19T04:29:06.962Z,979.21
2018-04-19T04:30:06.906Z,979.20
2018-04-19T04:31:06.933Z,979.19
2018-04-19T04:32:06.807Z,979.17
2018-04-19T04:33:06.774Z,979.17
2018-04-19T04:34:06.764Z,979.18
2018-04-19T04:35:06.669Z,979.19
2018-04-19T04:36:06.646Z,979.21
2018-04-19T04:37:06.570Z,979.21
2018-04-19T04:38:06.553Z,979.21
2018-04-19T04:39:06.486Z,979.20
2018-04-19T04:40:06.421Z,979.21
2018-04-19T04:41:06.374Z,979.19
2018-04-19T04:42:06.402Z,979.17
2018-04-19T04:43:06.318Z,979.18
2018-04-19T04:44:06.230Z,979.17
2018-04-19T04:45:06.178Z,979.21
2018-04-19T04:46:06.177Z,979.23
2018-04-19T04:47:06.097Z,979.18
2018-04-19T04:48:06.038Z,979.18
2018-04-19T04:49:06.026Z,979.19
2018-04-19T04:50:05.987Z,979.24
2018-04-19T04:51:05.894Z,979.21
2018-04-19T04:52:05.858Z,979.17
2018-04-19T04:53:05.797Z,979.27
2018-04-19T04:54:05.753Z,979.24
2018-04-19T04:55:05.740Z,979.18
2018-04-19T04:56:05.659Z,979.20
2018-04-19T04:57:05.645Z,979.20
2018-04-19T04:58:05.563Z,979.22
2018-04-19T04:59:05.520Z,979.23
2018-04-19T05:00:05.473Z,979.22
2018-04-19T05:01:05.418Z,979.23
2018-04-19T05:02:05.414Z,979.28
2018-04-19T05:03:05.324Z,979.27
2018-04-19T05:04:05.277Z,979.21
2018-04-19T05:05:05.233Z,979.22
2018-04-19T05:06:05.195Z,979.25
2018-04-19T05:07:05.182Z,979.22
2018-04-19T05:08:05.090Z,979.22
2018-04-19T05:09:05.039Z,979.23
2018-04-19T05:10:04.990Z,979.22
2018-04-19T05:11:04.942Z,979.21
2018-04-19T05:12:04.936Z,979.24
2018-04-19T05:13:04.850Z,979.21
2018-04-19T05:14:04.806Z,979.20
2018-04-19T05:15:04.778Z,979.20
2018-04-19T05:16:04.705Z,979.22
2018-04-19T05:17:04.690Z,979.23
2018-04-19T05:18:04.664Z,979.25
2018-04-19T05:19:04.572Z,979.23
2018-04-19T05:20:04.515Z,979.24
2018-04-19T05:21:04.466Z,979.28
2018-04-19T05:22:04.427Z,979.29
2018-04-19T05:23:04.419Z,979.27
2018-04-19T05:24:04.326Z,979.27
2018-04-19T05:25:04.315Z,979.32
2018-04-19T05:26:04.233Z,979.30
2018-04-19T05:27:04.184Z,979.31
2018-04-19T05:28:04.138Z,979.35
2018-04-19T05:29:04.143Z,979.34
2018-04-19T05:30:04.042Z,979.35
2018-04-19T05:31:03.999Z,979.40
2018-04-19T05:32:03.956Z,979.42
2018-04-19T05:33:03.914Z,979.41
2018-04-19T05:34:03.908Z,979.44
2018-04-19T05:35:03.804Z,979.45
2018-04-19T05:36:03.766Z,979.47
2018-04-19T05:37:03.711Z,979.45
2018-04-19T05:38:03.663Z,979.45
2018-04-19T05:39:03.648Z,979.50
2018-04-19T05:40:03.565Z,979.48
2018-04-19T05:41:03.561Z,979.44
2018-04-19T05:42:03.476Z,979.46
2018-04-19T05:43:03.436Z,979.48
2018-04-19T05:44:03.410Z,979.45
2018-04-19T05:45:03.341Z,979.46
2018-04-19T05:46:03.329Z,979.44
2018-04-19T05:47:03.239Z,979.46
2018-04-19T05:48:03.196Z,979.52
2018-04-19T05:49:03.143Z,979.45
2018-04-19T05:50:03.095Z,979.50
2018-04-19T05:51:03.090Z,979.46
2018-04-19T05:52:03.003Z,979.48
2018-04-19T05:53:02.954Z,979.51
2018-04-19T05:54:02.955Z,979.50
2018-04-19T05:55:02.859Z,979.50
2018-04-19T05:56:02.808Z,979.54
2018-04-19T05:57:02.769Z,979.57
2018-04-19T05:58:02.723Z,979.56
2018-04-19T05:59:02.709Z,979.55
2018-04-19T06:00:02.620Z,979.55
2018-04-19T06:01:02.576Z,979.56
2018-04-19T06:02:02.564Z,979.55
2018-04-19T06:03:02.488Z,979.58
2018-04-19T06:04:02.478Z,979.62
2018-04-19T06:05:02.392Z,979.58
2018-04-19T06:06:02.347Z,979.60
2018-04-19T06:07:02.327Z,979.59
2018-04-19T06:08:02.245Z,979.59
2018-04-19T06:09:02.211Z,979.57
2018-04-19T06:10:02.187Z,979.59
2018-04-19T06:11:02.238Z,979.59
2018-04-19T06:12:02.058Z,979.58
2018-04-19T06:13:02.018Z,979.60
2018-04-19T06:14:01.970Z,979.58
2018-04-19T06:15:01.922Z,979.60
2018-04-19T06:16:01.922Z,979.63
2018-04-19T06:17:01.825Z,979.62
2018-04-19T06:18:01.785Z,979.62
2018-04-19T06:19:01.742Z,979.57
2018-04-19T06:20:01.685Z,979.54
2018-04-19T06:21:01.677Z,979.57
2018-04-19T06:22:01.592Z,979.56
2018-04-19T06:23:01.539Z,979.58
2018-04-19T06:24:01.494Z,979.59
2018-04-19T06:25:01.447Z,979.52
2018-04-19T06:26:01.448Z,979.53
2018-04-19T06:27:01.352Z,979.58
2018-04-19T06:28:01.308Z,979.59
2018-04-19T06:29:01.264Z,979.51
2018-04-19T06:30:01.220Z,979.52
2018-04-19T06:31:01.213Z,979.51
2018-04-19T06:32:01.120Z,979.58
2018-04-19T06:33:01.080Z,979.57
2018-04-19T06:34:01.032Z,979.57
2018-04-19T06:35:00.983Z,979.61
2018-04-19T06:36:00.982Z,979.58
2018-04-19T06:37:00.892Z,979.59
2018-04-19T06:38:00.842Z,979.57
2018-04-19T06:39:00.798Z,979.62
2018-04-19T06:40:00.787Z,979.59
2018-04-19T06:41:00.709Z,979.59
2018-04-19T06:42:00.657Z,979.60
2018-04-19T06:43:00.644Z,979.62
2018-04-19T06:44:00.571Z,979.63
2018-04-19T06:45:00.518Z,979.61
2018-04-19T06:46:00.480Z,979.65
2018-04-19T06:47:00.469Z,979.62
2018-04-19T06:48:00.395Z,979.63
2018-04-19T06:49:00.330Z,979.63
2018-04-19T06:50:00.301Z,979.60
2018-04-19T06:51:00.252Z,979.65
2018-04-19T06:52:00.242Z,979.62
2018-04-19T06:53:00.147Z,979.62
2018-04-19T06:54:00.116Z,979.64
2018-04-19T06:55:00.059Z,979.64
2018-04-19T06:56:00.013Z,979.62
2018-04-19T06:56:59.998Z,979.63
2018-04-19T06:57:59.922Z,979.61
2018-04-19T06:58:59.937Z,979.68
2018-04-19T06:59:59.827Z,979.63
2018-04-19T07:00:59.789Z,979.63
2018-04-19T07:01:59.745Z,979.63
2018-04-19T07:02:59.693Z,979.64
2018-04-19T07:03:59.685Z,979.64
2018-04-19T07:04:59.601Z,979.62
2018-04-19T07:05:59.551Z,979.63
2018-04-19T07:06:59.505Z,979.64
2018-04-19T07:07:59.465Z,979.62
2018-04-19T07:08:59.449Z,979.60
2018-04-19T07:09:59.420Z,979.60
2018-04-19T07:10:59.328Z,979.65
2018-04-19T07:11:59.277Z,979.59
2018-04-19T07:12:59.232Z,979.61
2018-04-19T07:13:59.190Z,979.62
2018-04-19T07:14:59.178Z,979.65
2018-04-19T07:15:59.105Z,979.64
2018-04-19T07:16:59.054Z,979.60
2018-04-19T07:17:59.003Z,979.62
2018-04-19T07:18:59.000Z,979.65
2018-04-19T07:19:58.919Z,979.61
2018-04-19T07:20:58.927Z,979.63
2018-04-19T07:21:58.825Z,979.65
2018-04-19T07:22:58.779Z,979.62
2018-04-19T07:23:58.732Z,979.62
2018-04-19T07:24:58.695Z,979.61
2018-04-19T07:25:58.683Z,979.61
2018-04-19T07:26:58.597Z,979.59
2018-04-19T07:27:58.591Z,979.59
2018-04-19T07:28:58.512Z,979.60
2018-04-19T07:29:58.474Z,979.60
2018-04-19T07:30:58.420Z,979.59
2018-04-19T07:31:58.372Z,979.56
2018-04-19T07:32:58.369Z,979.61
2018-04-19T07:33:58.285Z,979.59
2018-04-19T07:34:58.237Z,979.53
2018-04-19T07:35:58.212Z,979.54
2018-04-19T07:36:58.154Z,979.59
2018-04-19T07:37:58.141Z,979.62
2018-04-19T07:38:58.108Z,979.59
2018-04-19T07:39:58.065Z,979.61
2018-04-19T07:40:57.974Z,979.57
2018-04-19T07:41:57.935Z,979.60
2018-04-19T07:42:57.886Z,979.59
2018-04-19T07:43:57.844Z,979.62
2018-04-19T07:44:57.830Z,979.62
2018-04-19T07:45:57.760Z,979.61
2018-04-19T07:46:57.707Z,979.60
2018-04-19T07:47:57.707Z,979.62
2018-04-19T07:48:57.624Z,979.63
2018-04-19T07:49:57.579Z,979.73
2018-04-19T07:50:57.539Z,979.65
2018-04-19T07:51:57.498Z,979.68
2018-04-19T07:52:57.484Z,979.69
2018-04-19T07:53:57.411Z,979.74
2018-04-19T07:54:57.366Z,979.67
2018-04-19T07:55:57.354Z,979.69
2018-04-19T07:56:57.285Z,979.67
2018-04-19T07:57:57.254Z,979.73
2018-04-19T07:58:57.200Z,979.75
2018-04-19T07:59:57.193Z,979.80
2018-04-19T08:00:57.110Z,979.70
2018-04-19T08:01:57.075Z,979.69
2018-04-19T08:02:57.030Z,979.84
2018-04-19T08:03:56.987Z,979.79
2018-04-19T08:04:56.986Z,979.78
2018-04-19T08:05:56.910Z,979.77
2018-04-19T08:06:56.866Z,979.70
2018-04-19T08:07:56.825Z,979.78
2018-04-19T08:08:56.786Z,979.75
2018-04-19T08:09:56.774Z,979.80
2018-04-19T08:10:56.702Z,979.79
2018-04-19T08:11:56.663Z,979.76
2018-04-19T08:12:56.671Z,979.81
2018-04-19T08:13:56.600Z,979.78
2018-04-19T08:14:56.553Z,979.75
2018-04-19T08:15:56.516Z,979.78
2018-04-19T08:16:56.458Z,979.79
2018-04-19T08:17:56.475Z,979.80
2018-04-19T08:18:56.403Z,979.85
2018-04-19T08:19:56.347Z,979.89
2018-04-19T08:20:56.305Z,979.81
2018-04-19T08:21:56.268Z,979.84
2018-04-19T08:22:56.281Z,979.82
2018-04-19T08:23:56.196Z,979.87
2018-04-19T08:24:56.158Z,979.83
2018-04-19T08:25:56.123Z,979.86
2018-04-19T08:26:56.086Z,979.90
2018-04-19T08:27:56.077Z,979.89
2018-04-19T08:28:56.006Z,979.86
2018-04-19T08:29:55.975Z,979.89
2018-04-19T08:30:55.964Z,979.92
2018-04-19T08:31:55.897Z,979.92
2018-04-19T08:32:55.868Z,979.86
2018-04-19T08:33:55.821Z,979.95
2018-04-19T08:34:55.782Z,979.94
2018-04-19T08:35:55.776Z,979.97
2018-04-19T08:36:55.705Z,979.91
2018-04-19T08:37:55.666Z,979.96
2018-04-19T08:38:55.627Z,979.94
2018-04-19T08:39:55.589Z,979.93
2018-04-19T08:40:55.590Z,979.91
2018-04-19T08:41:55.517Z,979.92
2018-04-19T08:42:55.485Z,979.94
2018-04-19T08:43:55.441Z,979.93
2018-04-19T08:44:55.410Z,979.95
2018-04-19T08:45:55.400Z,979.95
2018-04-19T08:46:55.336Z,979.98
2018-04-19T08:47:55.297Z,979.97
2018-04-19T08:48:55.259Z,979.93
2018-04-19T08:49:55.232Z,979.96
2018-04-19T08:50:55.230Z,979.96
2018-04-19T08:51:55.187Z,979.97
2018-04-19T08:52:55.117Z,980.01
2018-04-19T08:53:55.079Z,979.89
2018-04-19T08:54:55.044Z,979.87
2018-04-19T08:55:55.048Z,979.91
2018-04-19T08:56:54.978Z,980.00
2018-04-19T08:57:54.963Z,979.95
2018-04-19T08:58:54.896Z,979.98
2018-04-19T08:59:54.873Z,979.99
2018-04-19T09:00:54.856Z,979.92
2018-04-19T09:01:54.827Z,979.92
2018-04-19T09:02:54.751Z,979.94
2018-04-19T09:03:54.711Z,979.89
2018-04-19T09:04:54.711Z,979.94
2018-04-19T09:05:54.644Z,979.93
2018-04-19T09:06:54.608Z,979.95
2018-04-19T09:07:54.635Z,979.94
2018-04-19T09:08:54.546Z,979.95
2018-04-19T09:09:54.495Z,979.97
2018-04-19T09:10:54.457Z,979.96
2018-04-19T09:11:54.424Z,979.94
2018-04-19T09:12:54.444Z,979.97
2018-04-19T09:13:54.363Z,980.00
2018-04-19T09:14:54.325Z,979.99
2018-04-19T09:15:54.284Z,979.99
2018-04-19T09:16:54.245Z,980.00
2018-04-19T09:17:54.241Z,980.00
2018-04-19T09:18:54.174Z,980.00
2018-04-19T09:19:54.136Z,980.01
2018-04-19T09:20:54.129Z,979.96
2018-04-19T09:21:54.070Z,979.96
2018-04-19T09:22:54.038Z,979.97
2018-04-19T09:23:54.004Z,979.91
2018-04-19T09:24:53.996Z,979.96
2018-04-19T09:25:53.921Z,979.95
2018-04-19T09:26:53.879Z,979.96
2018-04-19T09:27:53.841Z,979.99
2018-04-19T09:28:53.813Z,979.94
2018-04-19T09:29:53.803Z,979.97
2018-04-19T09:30:53.764Z,979.98
2018-04-19T09:31:53.700Z,979.95
2018-04-19T09:32:53.666Z,980.00
2018-04-19T09:33:53.622Z,980.04
2018-04-19T09:34:53.595Z,979.93
2018-04-19T09:35:53.594Z,979.93
2018-04-19T09:36:53.508Z,979.95
2018-04-19T09:37:53.475Z,979.92
2018-04-19T09:38:53.444Z,979.89
2018-04-19T09:39:53.400Z,979.92
2018-04-19T09:40:53.442Z,979.93
2018-04-19T09:41:53.328Z,979.95
2018-04-19T09:42:53.329Z,979.87
2018-04-19T09:43:53.250Z,979.91
2018-04-19T09:44:53.217Z,979.86
2018-04-19T09:45:53.194Z,979.90
2018-04-19T09:46:53.139Z,979.92
2018-04-19T09:47:53.145Z,979.81
2018-04-19T09:48:53.067Z,979.86
2018-04-19T09:49:53.076Z,979.81
2018-04-19T09:50:52.993Z,979.85
2018-04-19T09:51:52.984Z,979.81
2018-04-19T09:52:52.950Z,979.80
2018-04-19T09:53:52.911Z,979.83
2018-04-19T09:54:52.894Z,979.79
2018-04-19T09:55:52.806Z,979.80
2018-04-19T09:56:52.770Z,979.78
2018-04-19T09:57:52.731Z,979.74
2018-04-19T09:58:52.697Z,979.75
2018-04-19T09:59:52.691Z,979.75
2018-04-19T10:00:52.631Z,979.67
2018-04-19T10:01:52.610Z,979.71
2018-04-19T10:02:52.552Z,979.68
2018-04-19T10:03:52.554Z,979.66
2018-04-19T10:04:52.485Z,979.66
2018-04-19T10:05:52.444Z,979.64
2018-04-19T10:06:52.407Z,979.74
2018-04-19T10:07:52.373Z,979.67
2018-04-19T10:08:52.459Z,979.64
2018-04-19T10:09:52.289Z,979.63
2018-04-19T10:10:52.255Z,979.60
2018-04-19T10:11:52.216Z,979.68
2018-04-19T10:12:52.180Z,979.64
2018-04-19T10:13:52.175Z,979.62
2018-04-19T10:14:52.105Z,979.53
2018-04-19T10:15:52.085Z,979.65
2018-04-19T10:16:52.027Z,979.52
2018-04-19T10:17:52.027Z,979.58
2018-04-19T10:18:51.960Z,979.55
2018-04-19T10:19:51.920Z,979.51
2018-04-19T10:20:51.920Z,979.51
2018-04-19T10:21:51.856Z,979.52
2018-04-19T10:22:51.810Z,979.53
2018-04-19T10:23:51.770Z,979.45
2018-04-19T10:24:51.777Z,979.46
2018-04-19T10:25:51.702Z,979.43
2018-04-19T10:26:51.702Z,979.43
2018-04-19T10:27:51.658Z,979.46
2018-04-19T10:28:51.596Z,979.49
2018-04-19T10:29:51.557Z,979.53
2018-04-19T10:30:51.514Z,979.47
2018-04-19T10:31:51.509Z,979.46
2018-04-19T10:32:51.452Z,979.52
2018-04-19T10:33:51.453Z,979.43
2018-04-19T10:34:51.376Z,979.47
2018-04-19T10:35:51.332Z,979.45
2018-04-19T10:36:51.338Z,979.43
2018-04-19T10:37:51.299Z,979.39
2018-04-19T10:38:51.221Z,979.41
2018-04-19T10:39:51.188Z,979.44
2018-04-19T10:40:51.155Z,979.36
2018-04-19T10:41:51.156Z,979.35
2018-04-19T10:42:51.076Z,979.39
2018-04-19T10:43:51.045Z,979.42
2018-04-19T10:44:51.005Z,979.37
2018-04-19T10:45:50.986Z,979.40
2018-04-19T10:46:50.979Z,979.36
2018-04-19T10:47:50.910Z,979.37
2018-04-19T10:48:50.870Z,979.30
2018-04-19T10:49:50.876Z,979.30
2018-04-19T10:50:50.794Z,979.31
2018-04-19T10:51:50.756Z,979.30
2018-04-19T10:52:50.734Z,979.30
2018-04-19T10:53:50.693Z,979.30
2018-04-19T10:54:50.687Z,979.32
2018-04-19T10:55:50.629Z,979.35
2018-04-19T10:56:50.586Z,979.29
2018-04-19T10:57:50.580Z,979.23
2018-04-19T10:58:50.532Z,979.26
2018-04-19T10:59:50.492Z,979.27
2018-04-19T11:00:50.492Z,979.20
2018-04-19T11:01:50.414Z,979.24
2018-04-19T11:02:50.374Z,979.27
2018-04-19T11:03:50.342Z,979.16
2018-04-19T11:04:50.325Z,979.19
2018-04-19T11:05:50.325Z,979.16
2018-04-19T11:06:50.242Z,979.22
2018-04-19T11:07:50.205Z,979.16
2018-04-19T11:08:50.180Z,979.16
2018-04-19T11:09:50.134Z,979.14
2018-04-19T11:10:50.139Z,979.13
2018-04-19T11:11:50.071Z,979.14
2018-04-19T11:12:50.036Z,979.21
2018-04-19T11:13:50.041Z,979.16
2018-04-19T11:14:49.965Z,979.15
2018-04-19T11:15:49.930Z,979.19
2018-04-19T11:16:49.929Z,979.09
2018-04-19T11:17:49.861Z,979.13
2018-04-19T11:18:49.830Z,979.12
2018-04-19T11:19:49.794Z,979.12
2018-04-19T11:20:49.814Z,979.21
2018-04-19T11:21:49.729Z,979.10
2018-04-19T11:22:49.697Z,979.11
2018-04-19T11:23:49.666Z,979.09
2018-04-19T11:24:49.626Z,979.06
2018-04-19T11:25:49.637Z,979.05
2018-04-19T11:26:49.570Z,979.08
2018-04-19T11:27:49.557Z,979.08
2018-04-19T11:28:49.540Z,979.04
2018-04-19T11:29:49.455Z,979.05
2018-04-19T11:30:49.452Z,979.00
2018-04-19T11:31:49.405Z,979.00
2018-04-19T11:32:49.352Z,978.97
2018-04-19T11:33:49.361Z,978.97
2018-04-19T11:34:49.282Z,978.95
2018-04-19T11:35:49.254Z,978.99
2018-04-19T11:36:49.213Z,978.91
2018-04-19T11:37:49.181Z,978.90
2018-04-19T11:38:49.187Z,978.92
2018-04-19T11:39:49.116Z,978.92
2018-04-19T11:40:49.083Z,978.90
2018-04-19T11:41:49.054Z,978.90
2018-04-19T11:42:49.024Z,978.88
2018-04-19T11:43:49.014Z,978.94
2018-04-19T11:44:48.948Z,978.90
2018-04-19T11:45:48.944Z,978.91
2018-04-19T11:46:48.875Z,978.91
2018-04-19T11:47:48.857Z,978.87
2018-04-19T11:48:48.817Z,978.94
2018-04-19T11:49:48.782Z,978.87
2018-04-19T11:50:48.788Z,978.86
2018-04-19T11:51:48.722Z,978.86
2018-04-19T11:52:48.675Z,978.83
2018-04-19T11:53:48.667Z,978.82
2018-04-19T11:54:48.621Z,978.85
2018-04-19T11:55:48.609Z,978.85
2018-04-19T11:56:48.551Z,978.81
2018-04-19T11:57:48.511Z,978.81
2018-04-19T11:58:48.579Z,978.80
2018-04-19T11:59:48.469Z,978.85
2018-04-19T12:00:48.455Z,978.94
2018-04-19T12:01:48.421Z,978.88
2018-04-19T12:02:48.384Z,978.86
2018-04-19T12:03:48.345Z,978.87
2018-04-19T12:04:48.287Z,978.89
2018-04-19T12:05:48.282Z,978.93
2018-04-19T12:06:48.218Z,978.81
2018-04-19T12:07:48.179Z,978.80
2018-04-19T12:08:48.150Z,978.85
2018-04-19T12:09:48.114Z,978.84
2018-04-19T12:10:48.126Z,978.81
2018-04-19T12:11:48.055Z,978.80
2018-04-19T12:12:48.016Z,978.85
2018-04-19T12:13:48.052Z,978.81
2018-04-19T12:14:47.942Z,978.80
2018-04-19T12:15:47.948Z,978.81
2018-04-19T12:16:47.894Z,978.79
2018-04-19T12:17:47.849Z,978.75
2018-04-19T12:18:47.820Z,978.78
2018-04-19T12:19:47.780Z,978.79
2018-04-19T12:20:47.794Z,978.80
2018-04-19T12:21:47.718Z,978.79
2018-04-19T12:22:47.685Z,978.76
2018-04-19T12:23:47.649Z,978.74
2018-04-19T12:24:47.613Z,978.76
2018-04-19T12:25:47.641Z,978.79
2018-04-19T12:26:47.558Z,978.77
2018-04-19T12:27:47.523Z,978.75